Time;durP1;ratioP1;P1;durP2;ratioP2;P2;SDS_P1;SDS_P2;PMS_P1;PMS_P2;Temp;Humidity;BMP_temperature;BMP_pressure;BME280_temperature;BME280_humidity;BME280_pressure;Samples;Min_cycle;Max_cycle;Signal;HPM_P1;HPM_P2
2022/04/26 03:37:39;;;;;;;37.05;25.35;;;6.00;99.90;;;;;;5147204;27;20584;-62
2022/04/26 03:40:07;;;;;;;40.95;27.75;;;6.00;99.90;;;;;;5147178;27;20211;-62
2022/04/26 03:42:35;;;;;;;35.22;25.92;;;6.00;99.90;;;;;;5144230;27;20200;-61
2022/04/26 03:45:02;;;;;;;38.38;27.23;;;6.00;99.90;;;;;;5143457;27;20646;-62
2022/04/26 03:47:29;;;;;;;35.05;26.20;;;6.00;99.90;;;;;;5144692;27;20202;-61
2022/04/26 03:49:58;;;;;;;34.83;25.85;;;6.00;99.90;;;;;;5144938;27;20199;-61
2022/04/26 03:52:25;;;;;;;35.60;26.05;;;5.90;99.90;;;;;;5145949;27;20230;-62
2022/04/26 03:54:52;;;;;;;39.95;26.60;;;5.90;99.90;;;;;;5145789;27;20211;-62
2022/04/26 03:57:19;;;;;;;40.05;28.13;;;5.90;99.90;;;;;;5159447;22;20691;-57
2022/04/26 03:59:46;;;;;;;38.85;26.33;;;5.90;99.90;;;;;;5134155;27;20195;-57
2022/04/26 04:02:13;;;;;;;35.28;26.67;;;6.00;99.90;;;;;;5134180;27;20199;-59
2022/04/26 04:04:40;;;;;;;39.38;27.52;;;6.00;99.90;;;;;;5134222;27;20223;-56
2022/04/26 04:09:38;;;;;;;36.85;27.02;;;6.00;99.90;;;;;;5169395;27;20516;-59
2022/04/26 04:12:07;;;;;;;41.78;27.75;;;6.10;99.90;;;;;;5152328;27;20201;-58
2022/04/26 04:14:34;;;;;;;36.85;27.90;;;6.10;99.90;;;;;;5152662;27;20570;-59
2022/04/26 04:17:01;;;;;;;35.92;27.27;;;6.10;99.90;;;;;;5152219;27;20225;-58
2022/04/26 04:19:29;;;;;;;37.22;26.77;;;6.10;99.90;;;;;;5152535;27;20202;-57
2022/04/26 04:21:56;;;;;;;40.72;26.23;;;6.10;99.90;;;;;;5152337;27;20194;-59
2022/04/26 04:24:23;;;;;;;38.00;26.83;;;6.10;99.90;;;;;;5152374;27;20209;-59
2022/04/26 04:26:51;;;;;;;39.65;28.63;;;6.20;99.90;;;;;;5152218;27;20214;-59
2022/04/26 04:29:18;;;;;;;35.40;27.52;;;6.20;99.90;;;;;;5152204;27;20678;-58
2022/04/26 04:31:46;;;;;;;35.10;26.80;;;6.30;99.90;;;;;;5152483;27;20198;-58
2022/04/26 04:34:13;;;;;;;38.13;29.40;;;6.40;99.90;;;;;;5152832;27;20230;-57
2022/04/26 04:36:40;;;;;;;38.30;28.60;;;6.40;99.90;;;;;;5153916;27;20222;-59
2022/04/26 04:39:07;;;;;;;41.65;29.58;;;6.50;99.90;;;;;;5153702;27;20663;-59
2022/04/26 04:41:36;;;;;;;39.58;29.65;;;6.60;99.90;;;;;;5155449;27;20202;-59
2022/04/26 04:44:07;;;;;;;44.92;29.83;;;6.60;99.90;;;;;;5156098;27;20233;-59
2022/04/26 04:46:34;;;;;;;36.70;28.75;;;6.70;99.90;;;;;;5156044;27;20222;-56
2022/04/26 04:49:02;;;;;;;39.20;27.45;;;6.90;99.90;;;;;;5156751;27;20245;-58
2022/04/26 04:51:29;;;;;;;43.75;30.60;;;6.90;99.90;;;;;;5155644;27;20199;-56
2022/04/26 04:53:56;;;;;;;36.20;25.10;;;7.00;99.90;;;;;;5155567;27;20639;-59
2022/04/26 04:56:24;;;;;;;35.35;26.52;;;7.10;99.90;;;;;;5155469;27;20225;-59
2022/04/26 04:58:52;;;;;;;32.95;26.48;;;7.30;99.90;;;;;;5155497;27;20231;-58
2022/04/26 05:01:20;;;;;;;34.80;27.05;;;7.50;99.90;;;;;;5155803;27;20198;-59
2022/04/26 05:03:47;;;;;;;33.65;26.55;;;7.60;99.90;;;;;;5157002;27;20202;-57
2022/04/26 05:06:15;;;;;;;31.40;24.60;;;7.80;99.90;;;;;;5157161;27;20222;-58
2022/04/26 05:08:43;;;;;;;32.53;24.13;;;8.00;99.90;;;;;;5156634;27;20248;-60
2022/04/26 05:11:11;;;;;;;32.78;25.73;;;8.20;99.90;;;;;;5156485;27;20206;-58
2022/04/26 05:13:38;;;;;;;31.67;25.25;;;8.30;99.90;;;;;;5155844;27;20648;-58
2022/04/26 05:16:05;;;;;;;29.20;25.50;;;8.40;99.90;;;;;;5155734;27;20226;-59
2022/04/26 05:18:34;;;;;;;34.28;26.10;;;8.50;99.90;;;;;;5153596;27;20191;-59
2022/04/26 05:21:01;;;;;;;30.70;25.80;;;8.50;99.90;;;;;;5140333;27;20203;-59
2022/04/26 05:26:12;;;;;;;33.05;25.75;;;8.70;99.90;;;;;;5140396;27;20232;-59
2022/04/26 05:28:40;;;;;;;37.70;28.03;;;8.80;99.90;;;;;;5138993;27;20214;-58
2022/04/26 05:31:08;;;;;;;30.50;24.00;;;8.90;99.90;;;;;;5140676;27;20448;-59
2022/04/26 05:33:36;;;;;;;32.17;26.03;;;8.90;99.90;;;;;;5137502;27;20487;-59
2022/04/26 05:36:04;;;;;;;30.63;25.85;;;8.80;99.90;;;;;;5137820;27;20468;-59
2022/04/26 05:38:31;;;;;;;38.37;28.50;;;8.70;99.90;;;;;;5137693;27;20199;-58
2022/04/26 05:40:58;;;;;;;34.45;27.58;;;8.70;99.90;;;;;;5137905;27;20441;-59
2022/04/26 05:43:25;;;;;;;32.57;26.87;;;8.70;99.90;;;;;;5136968;27;20239;-58
2022/04/26 05:45:52;;;;;;;32.27;25.97;;;8.70;99.90;;;;;;5137218;27;20441;-58
2022/04/26 05:48:20;;;;;;;35.00;25.95;;;8.70;99.90;;;;;;5137253;27;20476;-59
2022/04/26 05:50:48;;;;;;;30.60;26.03;;;8.80;99.90;;;;;;5136557;27;20204;-59
2022/04/26 05:53:15;;;;;;;34.43;26.50;;;8.90;99.90;;;;;;5136547;27;20801;-58
2022/04/26 05:55:42;;;;;;;32.70;25.93;;;9.10;99.90;;;;;;5136551;27;20439;-58
2022/04/26 05:58:10;;;;;;;31.37;25.27;;;9.10;99.90;;;;;;5140621;27;20453;-60
2022/04/26 06:00:38;;;;;;;31.07;25.33;;;9.20;99.90;;;;;;5144733;27;20443;-59
2022/04/26 06:03:05;;;;;;;29.97;24.90;;;9.30;99.90;;;;;;5142280;27;20447;-58
2022/04/26 06:05:32;;;;;;;30.10;24.57;;;9.30;99.90;;;;;;5144450;27;20451;-58
2022/04/26 06:08:01;;;;;;;29.25;24.30;;;9.30;99.90;;;;;;5144343;27;20833;-58
2022/04/26 06:10:28;;;;;;;31.17;24.67;;;9.30;99.90;;;;;;5142083;27;20215;-59
2022/04/26 06:12:55;;;;;;;30.58;25.33;;;9.20;99.90;;;;;;5142387;27;20452;-59
2022/04/26 06:15:23;;;;;;;33.03;26.50;;;9.20;99.90;;;;;;5142879;27;20213;-59
2022/04/26 06:17:50;;;;;;;36.00;26.98;;;9.20;99.90;;;;;;5138892;27;20827;-60
2022/04/26 06:20:17;;;;;;;30.73;25.20;;;9.20;99.90;;;;;;5137522;27;20204;-60
2022/04/26 06:22:44;;;;;;;33.42;25.20;;;9.30;99.90;;;;;;5137830;27;20568;-60
2022/04/26 06:25:13;;;;;;;33.65;27.55;;;9.40;99.90;;;;;;5136379;27;20204;-60
2022/04/26 06:27:40;;;;;;;33.43;26.10;;;9.50;99.90;;;;;;5136543;27;20225;-60
2022/04/26 06:30:07;;;;;;;35.00;25.63;;;9.50;99.90;;;;;;5136859;27;20485;-61
2022/04/26 06:32:35;;;;;;;36.73;25.80;;;9.50;99.90;;;;;;5134358;27;20451;-62
2022/04/26 06:35:02;;;;;;;32.42;25.50;;;9.70;99.90;;;;;;5135468;27;20464;-60
2022/04/26 06:37:30;;;;;;;31.10;25.50;;;9.80;99.90;;;;;;5135482;27;20227;-60
2022/04/26 06:39:57;;;;;;;34.70;26.60;;;10.00;99.90;;;;;;5135229;27;20866;-59
2022/04/26 06:42:25;;;;;;;32.40;27.20;;;10.20;99.90;;;;;;5134974;27;20304;-59
2022/04/26 06:44:52;;;;;;;33.67;26.00;;;10.30;99.90;;;;;;5135235;27;20470;-60
2022/04/26 06:47:19;;;;;;;31.37;25.53;;;10.50;99.90;;;;;;5134748;27;20470;-58
2022/04/26 06:49:46;;;;;;;32.93;26.33;;;10.60;99.90;;;;;;5134947;27;20486;-59
2022/04/26 06:52:13;;;;;;;30.97;25.07;;;10.70;99.90;;;;;;5135153;27;20448;-60
2022/04/26 06:54:40;;;;;;;28.03;24.13;;;10.80;99.90;;;;;;5134697;27;20456;-60
2022/04/26 06:57:08;;;;;;;34.43;25.90;;;10.90;99.90;;;;;;5135339;27;20471;-60
2022/04/26 06:59:36;;;;;;;35.40;27.03;;;11.00;99.90;;;;;;5135845;27;20442;-60
2022/04/26 07:02:04;;;;;;;35.93;27.23;;;11.10;99.90;;;;;;5135469;27;20440;-60
2022/04/26 07:04:31;;;;;;;37.00;27.60;;;11.20;99.90;;;;;;5135190;27;20961;-60
2022/04/26 07:06:58;;;;;;;33.37;26.93;;;11.30;99.90;;;;;;5134980;27;20998;-59
2022/04/26 07:09:25;;;;;;;33.23;25.00;;;11.40;99.90;;;;;;5135030;27;20483;-59
2022/04/26 07:11:52;;;;;;;36.10;26.10;;;11.60;99.90;;;;;;5134906;27;20452;-61
2022/04/26 07:14:19;;;;;;;33.67;27.10;;;11.70;99.90;;;;;;5135417;27;20452;-58
2022/04/26 07:16:49;;;;;;;35.07;26.77;;;11.80;99.90;;;;;;5135159;27;20463;-60
2022/04/26 07:19:17;;;;;;;35.43;27.60;;;11.90;99.90;;;;;;5134789;27;20995;-60
2022/04/26 07:21:46;;;;;;;33.63;26.80;;;12.00;99.90;;;;;;5135238;27;20816;-61
2022/04/26 07:24:14;;;;;;;32.83;26.33;;;12.10;99.90;;;;;;5135056;27;20504;-60
2022/04/26 07:26:42;;;;;;;32.77;25.50;;;12.30;99.90;;;;;;5139802;27;20967;-60
2022/04/26 07:29:10;;;;;;;32.10;25.67;;;12.30;99.90;;;;;;5137005;27;20476;-61
2022/04/26 07:31:37;;;;;;;31.70;25.07;;;12.50;99.90;;;;;;5135047;27;20448;-60
2022/04/26 07:34:24;;;;;;;29.17;24.77;;;12.60;99.90;;;;;;5135012;27;20444;-59
2022/04/26 07:36:52;;;;;;;27.80;24.50;;;12.60;99.80;;;;;;5134298;27;20482;-60
2022/04/26 07:39:19;;;;;;;27.47;23.20;;;12.70;99.50;;;;;;5135451;27;20778;-60
2022/04/26 07:41:47;;;;;;;31.43;25.37;;;12.80;98.90;;;;;;5135177;27;20444;-59
2022/04/26 07:44:15;;;;;;;28.80;22.20;;;12.80;98.40;;;;;;5134031;27;20437;-60
2022/04/26 07:46:44;;;;;;;31.37;22.93;;;12.80;97.80;;;;;;5133789;27;20984;-59
2022/04/26 07:49:12;;;;;;;30.97;22.77;;;12.90;97.60;;;;;;5133730;27;21010;-61
2022/04/26 07:51:40;;;;;;;27.10;22.07;;;13.00;97.00;;;;;;5135615;27;20466;-60
2022/04/26 07:54:07;;;;;;;26.30;20.93;;;13.20;96.90;;;;;;5134284;27;20524;-59
2022/04/26 07:56:34;;;;;;;27.07;20.60;;;13.30;95.90;;;;;;5134337;27;20460;-59
2022/04/26 07:59:03;;;;;;;23.50;21.00;;;13.40;94.90;;;;;;5134204;27;20437;-61
2022/04/26 08:01:31;;;;;;;24.90;20.57;;;13.40;94.30;;;;;;5134494;27;20440;-60
2022/04/26 08:03:58;;;;;;;21.60;19.27;;;13.40;94.20;;;;;;5134330;27;20558;-60
2022/04/26 08:06:26;;;;;;;22.00;17.90;;;13.60;93.90;;;;;;5134506;28;20464;-59
2022/04/26 08:08:54;;;;;;;19.23;17.33;;;13.70;93.10;;;;;;5134145;28;20487;-59
2022/04/26 08:11:22;;;;;;;22.00;18.07;;;13.90;92.30;;;;;;5134801;28;20452;-60
2022/04/26 08:13:50;;;;;;;23.40;20.07;;;14.20;91.10;;;;;;5145724;28;20448;-60
2022/04/26 08:16:17;;;;;;;23.80;18.50;;;14.20;90.20;;;;;;5138398;27;20895;-58
2022/04/26 08:18:44;;;;;;;18.17;15.63;;;14.30;89.40;;;;;;5135598;27;20976;-62
2022/04/26 08:21:14;;;;;;;21.10;17.60;;;14.50;87.70;;;;;;5138335;27;20447;-60
2022/04/26 08:29:14;;;;;;;22.97;19.17;;;15.10;82.20;;;;;;5141714;28;20553;-58
2022/04/26 08:31:41;;;;;;;22.30;18.03;;;15.20;80.20;;;;;;5137543;28;20981;-61
2022/04/26 08:34:09;;;;;;;23.00;18.43;;;15.30;79.10;;;;;;5137737;27;20445;-60
2022/04/26 08:36:36;;;;;;;17.80;14.70;;;15.40;78.30;;;;;;5138501;27;20466;-61
2022/04/26 08:39:04;;;;;;;17.53;15.57;;;15.50;77.70;;;;;;5138141;27;20445;-59
2022/04/26 08:41:32;;;;;;;17.40;15.70;;;15.60;75.80;;;;;;5138514;28;20446;-61
2022/04/26 08:43:59;;;;;;;18.20;16.10;;;15.70;74.60;;;;;;5137657;28;20466;-61
2022/04/26 08:50:59;;;;;;;19.43;16.60;;;15.90;72.80;;;;;;5135617;28;20471;-62
2022/04/26 08:52:06;;;;;;;16.70;14.77;;;15.80;70.70;;;;;;5135930;28;20428;-61
2022/04/26 08:54:35;;;;;;;16.60;13.67;;;15.80;70.30;;;;;;5135409;27;20433;-63
2022/04/26 08:57:02;;;;;;;16.23;14.10;;;15.70;69.90;;;;;;5138036;27;20830;-62
2022/04/26 08:59:30;;;;;;;16.70;14.03;;;15.70;69.30;;;;;;5138231;27;20538;-62
2022/04/26 09:02:16;;;;;;;17.47;13.93;;;15.80;68.40;;;;;;5137980;27;20947;-63
2022/04/26 09:04:44;;;;;;;18.10;13.40;;;15.90;66.30;;;;;;5143101;27;20435;-61
2022/04/26 09:07:12;;;;;;;17.03;13.23;;;16.00;65.50;;;;;;5138933;27;21012;-61
2022/04/26 09:09:42;;;;;;;16.07;14.37;;;16.10;64.40;;;;;;5140137;27;20471;-61
2022/04/26 09:12:42;;;;;;;15.70;13.97;;;16.20;63.50;;;;;;5141416;27;20440;-61
2022/04/26 09:15:17;;;;;;;14.87;13.27;;;16.20;62.50;;;;;;5128452;27;20448;-62
2022/04/26 09:17:44;;;;;;;15.27;12.57;;;16.10;62.30;;;;;;5138206;27;20499;-62
2022/04/26 09:20:11;;;;;;;14.40;12.13;;;16.10;62.20;;;;;;5139939;27;20968;-61
2022/04/26 09:22:39;;;;;;;13.20;11.90;;;16.20;62.00;;;;;;5140513;27;20452;-61
2022/04/26 09:25:09;;;;;;;14.00;12.23;;;16.40;60.10;;;;;;5137391;27;20447;-60
2022/04/26 09:27:38;;;;;;;13.63;11.23;;;16.30;59.00;;;;;;5137114;27;20471;-62
2022/04/26 09:30:09;;;;;;;13.07;11.77;;;16.10;59.40;;;;;;5137415;27;20537;-61
2022/04/26 09:32:46;;;;;;;13.67;12.20;;;16.10;59.60;;;;;;5137161;27;20486;-61
2022/04/26 09:35:19;;;;;;;12.43;11.23;;;16.10;59.80;;;;;;5137618;27;20424;-59
2022/04/26 09:37:46;;;;;;;12.10;10.80;;;16.10;59.80;;;;;;5137283;27;20492;-61
2022/04/26 09:40:15;;;;;;;13.87;10.50;;;16.00;59.60;;;;;;5137354;27;20440;-61
2022/04/26 09:42:42;;;;;;;12.03;10.83;;;15.90;59.20;;;;;;5137359;27;20448;-60
2022/04/26 09:45:13;;;;;;;10.90;9.80;;;15.90;59.40;;;;;;5137517;27;20849;-61
2022/04/26 09:47:41;;;;;;;12.17;10.83;;;16.10;59.10;;;;;;5137024;27;20465;-61
2022/04/26 09:50:23;;;;;;;14.03;10.30;;;16.20;58.60;;;;;;5137614;27;20476;-62
2022/04/26 09:52:50;;;;;;;10.87;9.73;;;16.30;58.10;;;;;;5136743;27;20459;-61
2022/04/26 09:55:20;;;;;;;11.03;9.40;;;16.20;58.10;;;;;;5137417;27;20443;-61
2022/04/26 09:57:50;;;;;;;10.23;8.67;;;16.20;58.20;;;;;;5137577;27;20866;-61
2022/04/26 10:00:19;;;;;;;8.47;7.50;;;16.20;58.20;;;;;;5137470;27;20447;-60
2022/04/26 10:02:47;;;;;;;9.03;8.13;;;16.30;57.80;;;;;;5140519;27;20938;-61
2022/04/26 10:05:20;;;;;;;8.43;7.07;;;16.40;57.10;;;;;;5139141;27;20445;-63
2022/04/26 10:07:48;;;;;;;7.20;6.50;;;16.50;56.30;;;;;;5137162;27;20596;-62
2022/04/26 10:10:15;;;;;;;11.30;8.90;;;16.50;55.20;;;;;;5137059;27;20503;-62
2022/04/26 10:13:31;;;;;;;8.03;7.23;;;16.60;54.60;;;;;;5136688;27;20444;-63
2022/04/26 10:15:33;;;;;;;9.93;8.20;;;16.90;53.90;;;;;;5137119;27;20536;-62
2022/04/26 10:18:00;;;;;;;9.30;7.67;;;17.20;53.10;;;;;;5137469;27;20920;-61
2022/04/26 10:20:45;;;;;;;8.73;8.00;;;17.40;52.50;;;;;;5137164;27;20445;-62
2022/04/26 10:23:12;;;;;;;13.07;9.20;;;17.30;52.10;;;;;;5136940;27;20908;-62
2022/04/26 10:25:39;;;;;;;11.60;9.33;;;17.20;52.30;;;;;;5136904;27;20436;-61
2022/04/26 10:28:26;;;;;;;10.40;8.27;;;17.10;52.50;;;;;;5136738;27;20432;-62
2022/04/26 10:30:55;;;;;;;9.13;7.50;;;17.10;52.70;;;;;;5136292;27;20565;-62
2022/04/26 10:33:40;;;;;;;9.53;8.53;;;16.90;52.70;;;;;;5136927;27;20793;-62
2022/04/26 10:36:33;;;;;;;7.70;6.80;;;16.90;52.50;;;;;;5136491;27;20481;-63
2022/04/26 10:39:22;;;;;;;6.60;6.00;;;17.00;52.40;;;;;;5136663;27;20456;-62
2022/04/26 10:41:49;;;;;;;8.73;6.83;;;17.10;52.10;;;;;;5133792;27;20825;-59
2022/04/26 10:44:30;;;;;;;8.13;7.33;;;17.10;51.60;;;;;;5141446;27;20436;-63
2022/04/26 10:47:26;;;;;;;8.70;6.83;;;17.10;51.30;;;;;;5136653;27;20489;-64
2022/04/26 10:49:54;;;;;;;8.80;6.57;;;17.10;51.30;;;;;;5136558;27;20464;-62
2022/04/26 10:52:43;;;;;;;6.57;5.83;;;17.20;51.00;;;;;;5136110;27;20448;-62
2022/04/26 10:55:21;;;;;;;6.93;6.17;;;17.20;50.50;;;;;;5136548;27;20918;-63
2022/04/26 10:57:51;;;;;;;9.07;6.00;;;17.20;50.30;;;;;;5136003;27;20473;-62
2022/04/26 11:00:37;;;;;;;7.33;5.90;;;17.10;50.10;;;;;;5136252;27;20786;-62
2022/04/26 11:03:07;;;;;;;7.57;5.83;;;17.00;50.20;;;;;;5135803;27;20495;-63
2022/04/26 11:05:35;;;;;;;7.67;6.87;;;16.90;50.50;;;;;;5136101;27;20436;-63
2022/04/26 11:08:05;;;;;;;7.50;6.23;;;16.80;50.60;;;;;;5136099;27;20495;-63
2022/04/26 11:13:31;;;;;;;13.73;7.63;;;16.90;50.80;;;;;;5138056;27;20426;-63
2022/04/26 11:16:09;;;;;;;8.23;6.50;;;16.80;50.60;;;;;;5139810;27;20820;-64
2022/04/26 11:18:40;;;;;;;7.23;5.67;;;16.80;50.50;;;;;;5136873;27;20860;-62
2022/04/26 11:21:07;;;;;;;6.90;6.20;;;16.90;50.50;;;;;;5136885;27;20517;-62
2022/04/26 11:29:26;;;;;;;6.17;5.57;;;17.20;49.50;;;;;;5139494;27;20396;-62
2022/04/26 11:31:55;;;;;;;9.47;5.57;;;17.30;49.10;;;;;;5137237;27;20513;-62
2022/04/26 11:34:47;;;;;;;7.47;6.40;;;17.40;48.90;;;;;;5137317;27;20442;-61
2022/04/26 11:37:14;;;;;;;8.37;5.77;;;17.40;48.50;;;;;;5136600;27;20485;-61
2022/04/26 11:39:43;;;;;;;7.03;6.33;;;17.50;48.30;;;;;;5136795;27;20459;-63
2022/04/26 11:42:11;;;;;;;6.13;5.53;;;17.60;48.20;;;;;;5136102;27;20443;-62
2022/04/26 11:44:38;;;;;;;6.23;5.63;;;17.90;48.00;;;;;;5135262;27;20445;-62
2022/04/26 11:47:12;;;;;;;6.97;6.37;;;18.00;47.30;;;;;;5136868;27;20528;-64
2022/04/26 11:49:40;;;;;;;6.63;6.00;;;18.10;47.10;;;;;;5135317;27;20428;-62
2022/04/26 11:52:08;;;;;;;6.67;6.07;;;18.20;46.70;;;;;;5135121;27;20451;-62
2022/04/26 11:54:35;;;;;;;7.10;5.80;;;18.40;46.40;;;;;;5134964;27;20443;-63
2022/04/26 11:57:04;;;;;;;6.83;6.10;;;18.50;46.00;;;;;;5134900;27;20465;-63
2022/04/26 11:59:33;;;;;;;5.70;5.10;;;18.50;45.60;;;;;;5135015;27;20528;-65
2022/04/26 12:02:00;;;;;;;11.53;8.60;;;18.30;46.00;;;;;;5134862;27;20481;-62
2022/04/26 12:04:29;;;;;;;10.37;8.00;;;18.10;45.60;;;;;;5134683;27;20460;-63
2022/04/26 12:06:57;;;;;;;5.80;5.20;;;18.20;45.80;;;;;;5134722;27;20476;-62
2022/04/26 12:09:26;;;;;;;6.93;5.90;;;18.40;45.60;;;;;;5134213;28;20507;-63
2022/04/26 12:12:02;;;;;;;6.53;5.93;;;18.70;44.90;;;;;;5134972;28;20528;-62
2022/04/26 12:14:29;;;;;;;6.30;5.70;;;18.90;44.30;;;;;;5134396;27;20739;-63
2022/04/26 12:16:57;;;;;;;7.30;6.60;;;19.10;43.90;;;;;;5134268;28;20471;-63
2022/04/26 12:19:36;;;;;;;7.83;6.90;;;19.70;43.20;;;;;;5134734;28;20894;-63
2022/04/26 12:22:05;;;;;;;7.53;6.83;;;20.30;42.50;;;;;;5134628;28;20897;-63
2022/04/26 12:24:34;;;;;;;7.20;6.50;;;20.50;42.10;;;;;;5135330;27;20446;-63
2022/04/26 12:27:03;;;;;;;7.60;5.80;;;20.60;42.10;;;;;;5134824;28;20493;-64
2022/04/26 12:29:31;;;;;;;7.73;6.93;;;20.70;42.20;;;;;;5134882;27;20442;-63
2022/04/26 12:31:59;;;;;;;5.97;5.23;;;20.70;42.00;;;;;;5138394;27;21112;-64
2022/04/26 12:34:30;;;;;;;6.70;6.10;;;20.70;41.80;;;;;;5138405;27;20973;-63
2022/04/26 12:37:00;;;;;;;5.47;4.97;;;20.70;41.30;;;;;;5138554;27;20792;-64
2022/04/26 12:39:40;;;;;;;5.03;4.63;;;20.60;40.90;;;;;;5138320;27;20427;-64
2022/04/26 12:42:09;;;;;;;5.50;5.00;;;20.40;41.60;;;;;;5138592;27;20458;-60
2022/04/26 12:44:37;;;;;;;5.87;5.30;;;20.10;41.70;;;;;;5138579;27;20444;-62
2022/04/26 12:52:49;;;;;;;5.93;5.20;;;18.80;44.10;;;;;;5137764;27;20960;-61
2022/04/26 12:55:25;;;;;;;6.67;6.07;;;18.50;44.80;;;;;;5138115;27;20861;-60
2022/04/26 12:57:54;;;;;;;7.30;5.20;;;18.10;45.50;;;;;;5138076;27;20464;-61
2022/04/26 13:00:23;;;;;;;8.37;6.63;;;17.60;46.40;;;;;;5138443;27;20534;-62
2022/04/26 13:02:52;;;;;;;7.10;6.40;;;17.30;47.40;;;;;;5137690;27;20451;-61
2022/04/26 13:05:19;;;;;;;7.80;6.93;;;17.00;48.10;;;;;;5139306;27;20908;-61
2022/04/26 13:07:48;;;;;;;8.97;6.50;;;16.80;48.70;;;;;;5137979;27;20486;-62
2022/04/26 13:10:17;;;;;;;7.07;6.23;;;16.70;49.40;;;;;;5139351;27;20483;-60
2022/04/26 13:12:44;;;;;;;7.57;6.00;;;16.60;49.70;;;;;;5142274;27;20483;-60
2022/04/26 13:15:13;;;;;;;6.27;5.67;;;16.40;50.00;;;;;;5142329;27;20447;-61
2022/04/26 13:17:40;;;;;;;7.10;6.10;;;16.30;50.50;;;;;;5142306;27;20467;-60
2022/04/26 13:20:10;;;;;;;7.23;5.93;;;16.30;50.80;;;;;;5140950;27;20440;-61
2022/04/26 13:22:38;;;;;;;5.50;5.00;;;16.40;50.80;;;;;;5141148;27;20815;-60
2022/04/26 13:25:09;;;;;;;6.77;5.90;;;16.50;50.70;;;;;;5141498;27;20448;-60
2022/04/26 13:27:37;;;;;;;5.77;5.27;;;16.70;50.50;;;;;;5140131;27;20460;-60
2022/04/26 13:30:06;;;;;;;5.83;5.20;;;16.90;50.30;;;;;;5140496;27;20937;-60
2022/04/26 13:32:33;;;;;;;4.77;4.37;;;17.00;49.80;;;;;;5139209;27;20455;-60
2022/04/26 13:35:02;;;;;;;6.93;5.53;;;17.20;49.50;;;;;;5138100;27;20448;-61
2022/04/26 13:37:29;;;;;;;6.50;4.93;;;17.30;49.00;;;;;;5136508;27;20468;-60
2022/04/26 13:39:58;;;;;;;5.70;5.17;;;17.40;48.70;;;;;;5136684;27;20452;-61
2022/04/26 13:42:27;;;;;;;5.40;4.20;;;17.60;48.50;;;;;;5137480;27;20442;-61
2022/04/26 13:44:55;;;;;;;5.27;4.77;;;17.80;48.40;;;;;;5137184;27;20467;-61
2022/04/26 13:47:22;;;;;;;5.00;4.50;;;18.00;48.30;;;;;;5136772;27;20555;-60
2022/04/26 13:49:51;;;;;;;7.93;5.00;;;18.20;48.40;;;;;;5137052;27;20441;-59
2022/04/26 13:52:20;;;;;;;5.37;4.80;;;18.20;48.20;;;;;;5137296;27;20488;-61
2022/04/26 13:54:47;;;;;;;5.83;4.80;;;18.30;48.20;;;;;;5138903;27;20447;-60
2022/04/26 13:57:14;;;;;;;5.37;4.87;;;18.30;48.00;;;;;;5139603;27;20468;-59
2022/04/26 13:59:43;;;;;;;5.20;4.20;;;18.40;47.90;;;;;;5139969;27;20487;-59
2022/04/26 14:02:12;;;;;;;4.60;4.20;;;18.50;47.60;;;;;;5140930;27;20448;-63
2022/04/26 14:04:48;;;;;;;4.67;3.80;;;18.50;47.40;;;;;;5141145;27;20448;-58
2022/04/26 14:07:15;;;;;;;3.77;3.47;;;18.50;46.60;;;;;;5139862;27;20968;-62
2022/04/26 14:09:42;;;;;;;4.30;3.70;;;18.30;46.10;;;;;;5140063;27;20437;-62
2022/04/26 14:12:11;;;;;;;4.50;4.10;;;18.00;46.00;;;;;;5138892;27;20494;-62
2022/04/26 14:22:54;;;;;;;4.93;3.47;;;18.20;45.30;;;;;;5138396;27;20394;-62
2022/04/26 14:25:21;;;;;;;3.50;3.20;;;18.30;45.20;;;;;;5135573;27;20527;-61
2022/04/26 14:27:49;;;;;;;5.27;3.87;;;18.50;45.00;;;;;;5135346;27;20467;-62
2022/04/26 14:30:17;;;;;;;3.60;3.30;;;18.50;44.60;;;;;;5135450;27;20455;-62
2022/04/26 14:32:46;;;;;;;4.40;3.80;;;18.60;44.40;;;;;;5135405;27;20438;-62
2022/04/26 14:35:13;;;;;;;4.50;4.07;;;18.60;44.10;;;;;;5136283;27;20547;-63
2022/04/26 14:37:41;;;;;;;4.20;3.80;;;18.60;44.00;;;;;;5135701;27;20477;-62
2022/04/26 14:40:10;;;;;;;5.13;3.80;;;18.40;44.00;;;;;;5135355;27;20954;-62
2022/04/26 14:42:38;;;;;;;5.30;4.80;;;18.20;44.00;;;;;;5116408;22;20558;-57
2022/04/26 14:45:06;;;;;;;5.70;4.67;;;18.10;44.10;;;;;;5074286;28;20439;-56
2022/04/26 14:47:33;;;;;;;4.70;4.20;;;17.90;44.20;;;;;;5074351;28;20480;-56
2022/04/26 14:50:02;;;;;;;3.60;3.30;;;17.90;44.30;;;;;;5074231;28;20950;-57
2022/04/26 14:52:30;;;;;;;6.10;3.60;;;18.00;44.30;;;;;;5073145;28;20528;-56
2022/04/26 14:55:00;;;;;;;6.50;5.23;;;18.10;44.20;;;;;;5074535;28;20556;-57
2022/04/26 14:57:28;;;;;;;5.00;4.40;;;18.20;44.00;;;;;;5075190;28;20468;-55
2022/04/26 14:59:55;;;;;;;5.97;5.37;;;18.20;43.90;;;;;;5074693;28;20439;-56
2022/04/26 15:02:22;;;;;;;7.20;4.50;;;18.10;43.90;;;;;;5074201;28;20489;-55
2022/04/26 15:04:51;;;;;;;4.75;4.00;;;18.10;44.10;;;;;;5073702;28;20446;-56
2022/04/26 15:07:20;;;;;;;5.50;4.57;;;18.10;44.10;;;;;;5075768;28;20206;-55
2022/04/26 15:09:52;;;;;;;6.70;4.20;;;17.90;44.10;;;;;;5075533;28;20449;-53
2022/04/26 15:17:50;;;;;;;4.50;4.10;;;17.50;44.60;;;;;;5074007;28;20481;-56
2022/04/26 15:20:19;;;;;;;4.80;3.87;;;17.40;44.70;;;;;;5073695;28;20453;-56
2022/04/26 15:22:48;;;;;;;4.57;4.10;;;17.40;44.80;;;;;;5073276;28;21098;-55
2022/04/26 15:25:15;;;;;;;5.37;3.70;;;17.50;44.90;;;;;;5073529;28;20445;-56
2022/04/26 15:27:42;;;;;;;6.83;4.87;;;17.60;44.80;;;;;;5074239;28;20509;-56
2022/04/26 15:30:11;;;;;;;7.53;5.07;;;17.60;44.70;;;;;;5074186;28;20447;-56
2022/04/26 15:32:38;;;;;;;4.63;4.03;;;17.70;44.80;;;;;;5074055;28;20912;-55
2022/04/26 15:35:06;;;;;;;4.80;4.30;;;17.80;44.60;;;;;;5073988;28;20450;-57
2022/04/26 15:37:34;;;;;;;5.10;3.90;;;17.90;44.40;;;;;;5074520;28;20447;-58
2022/04/26 15:40:02;;;;;;;7.30;3.90;;;17.90;44.30;;;;;;5074119;28;20890;-57
2022/04/26 15:42:32;;;;;;;5.00;3.80;;;18.00;44.20;;;;;;5073675;28;20543;-58
2022/04/26 15:45:02;;;;;;;4.37;3.97;;;18.00;44.20;;;;;;5073733;28;20537;-56
2022/04/26 15:47:29;;;;;;;4.40;3.80;;;18.00;44.10;;;;;;5073931;28;20445;-56
2022/04/26 15:49:57;;;;;;;4.60;4.20;;;18.00;43.90;;;;;;5073092;28;20450;-57
2022/04/26 15:52:25;;;;;;;4.40;4.00;;;18.00;44.00;;;;;;5073330;28;20490;-56
2022/04/26 15:54:53;;;;;;;6.80;4.30;;;17.90;44.10;;;;;;5073108;28;20452;-56
2022/04/26 15:57:22;;;;;;;4.60;4.10;;;17.80;44.00;;;;;;5073136;28;20459;-56
2022/04/26 15:59:49;;;;;;;5.10;4.53;;;17.80;44.00;;;;;;5073027;28;20456;-54
2022/04/26 16:02:17;;;;;;;4.17;3.77;;;17.70;44.10;;;;;;5073085;28;20549;-57
2022/04/26 16:04:44;;;;;;;7.20;3.87;;;17.50;44.10;;;;;;5073893;28;20441;-57
2022/04/26 16:07:11;;;;;;;5.80;5.20;;;17.40;44.60;;;;;;5074653;28;20948;-56
2022/04/26 16:20:42;;;;;;;7.40;5.53;;;16.40;50.00;;;;;;5074809;28;20415;-55
2022/04/26 16:23:09;;;;;;;6.87;5.67;;;16.30;50.60;;;;;;5072975;28;20459;-56
2022/04/26 16:25:36;;;;;;;9.30;6.57;;;16.20;51.00;;;;;;5073355;28;20451;-56
2022/04/26 16:28:05;;;;;;;7.13;6.23;;;16.10;51.20;;;;;;5073189;28;20447;-57
2022/04/26 16:30:34;;;;;;;7.00;6.13;;;16.00;51.50;;;;;;5073370;28;20821;-56
2022/04/26 16:33:04;;;;;;;6.43;5.77;;;16.00;51.80;;;;;;5072875;28;20490;-57
2022/04/26 16:35:32;;;;;;;8.07;7.37;;;15.90;52.00;;;;;;5074029;28;20924;-57
2022/04/26 16:38:01;;;;;;;7.23;6.60;;;15.80;52.20;;;;;;5075091;28;20447;-58
2022/04/26 16:40:29;;;;;;;6.50;5.70;;;15.80;52.40;;;;;;5075047;28;20458;-60
2022/04/26 16:42:56;;;;;;;11.03;6.80;;;15.70;52.40;;;;;;5073414;28;20470;-57
2022/04/26 16:45:24;;;;;;;6.80;6.10;;;15.70;52.60;;;;;;5073884;28;20971;-56
2022/04/26 16:47:53;;;;;;;6.83;6.23;;;15.60;52.70;;;;;;5074072;28;20438;-58
2022/04/26 16:50:20;;;;;;;8.20;7.40;;;15.50;53.00;;;;;;5074070;28;20468;-58
2022/04/26 16:52:49;;;;;;;7.93;7.17;;;15.50;53.40;;;;;;5074469;28;20489;-57
2022/04/26 16:55:16;;;;;;;7.33;6.70;;;15.50;53.70;;;;;;5073285;28;20497;-58
2022/04/26 16:57:44;;;;;;;6.70;6.10;;;15.50;53.90;;;;;;5072789;28;20453;-56
2022/04/26 17:00:14;;;;;;;6.77;6.10;;;15.50;54.00;;;;;;5072984;28;20453;-56
2022/04/26 17:02:43;;;;;;;9.77;7.10;;;15.40;54.00;;;;;;5072948;28;20517;-56
2022/04/26 17:05:11;;;;;;;8.70;6.60;;;15.40;54.10;;;;;;5073074;28;20450;-56
2022/04/26 17:07:40;;;;;;;6.70;6.00;;;15.40;54.40;;;;;;5074927;28;20462;-55
2022/04/26 17:10:07;;;;;;;6.73;6.10;;;15.50;54.40;;;;;;5072582;28;20821;-56
2022/04/26 17:12:35;;;;;;;6.90;6.30;;;15.70;53.80;;;;;;5073225;28;20517;-56
2022/04/26 17:15:03;;;;;;;7.90;6.37;;;15.80;53.40;;;;;;5072548;28;20959;-56
2022/04/26 17:17:33;;;;;;;7.40;6.70;;;15.80;53.40;;;;;;5076136;28;20446;-56
2022/04/26 17:20:02;;;;;;;7.70;6.90;;;15.70;53.60;;;;;;5076036;28;20451;-57